createdAt,value
2023-01-05T00:01:46.917Z,67.53
2023-01-05T00:04:14.275Z,68.11
2023-01-05T00:06:42.139Z,67.65
2023-01-05T00:09:14.321Z,68.14
2023-01-05T00:11:59.552Z,68.42
2023-01-05T00:14:49.227Z,68.40
2023-01-05T00:17:41.878Z,68.63
2023-01-05T00:20:36.240Z,67.34
2023-01-05T00:23:03.596Z,67.05
2023-01-05T00:25:34.357Z,68.00
2023-01-05T00:28:01.198Z,67.94
2023-01-05T00:30:33.239Z,67.99
2023-01-05T00:33:00.231Z,68.43
2023-01-05T00:35:27.213Z,68.57
2023-01-05T00:37:54.782Z,68.59
2023-01-05T00:40:22.607Z,68.90
2023-01-05T00:42:49.636Z,68.48
2023-01-05T00:45:18.898Z,68.02
2023-01-05T00:47:45.968Z,68.03
2023-01-05T00:50:17.103Z,68.40
2023-01-05T00:52:45.115Z,67.98
2023-01-05T00:55:12.268Z,67.98
2023-01-05T00:57:39.538Z,67.34
2023-01-05T01:00:11.441Z,67.67
2023-01-05T01:02:38.243Z,67.85
2023-01-05T01:05:06.137Z,68.36
2023-01-05T01:07:32.973Z,68.09
2023-01-05T01:09:59.772Z,68.21
2023-01-05T01:12:26.629Z,68.72
2023-01-05T01:14:53.538Z,69.08
2023-01-05T01:17:20.478Z,68.73
2023-01-05T01:19:47.334Z,68.43
2023-01-05T01:22:14.642Z,69.49
2023-01-05T01:24:41.695Z,69.35
2023-01-05T01:27:08.633Z,68.62
2023-01-05T01:29:35.522Z,69.67
2023-01-05T01:32:02.359Z,69.50
2023-01-05T01:34:29.339Z,69.34
2023-01-05T01:36:56.728Z,70.50
2023-01-05T01:39:23.751Z,69.49
2023-01-05T01:41:50.655Z,68.90
2023-01-05T01:44:48.371Z,69.74
2023-01-05T01:47:32.128Z,69.73
2023-01-05T01:50:04.169Z,70.04
2023-01-05T01:52:32.909Z,70.01
2023-01-05T01:55:02.238Z,69.81
2023-01-05T01:57:29.451Z,69.38
2023-01-05T01:59:59.551Z,70.21
2023-01-05T02:02:28.669Z,69.64
2023-01-05T02:05:03.636Z,70.33
2023-01-05T02:07:34.858Z,70.46
2023-01-05T02:10:04.660Z,71.31
2023-01-05T02:13:05.001Z,70.01
2023-01-05T02:16:06.058Z,69.87
2023-01-05T02:18:40.340Z,69.73
2023-01-05T02:21:30.893Z,70.66
2023-01-05T02:25:02.159Z,69.41
2023-01-05T02:27:44.007Z,69.44
2023-01-05T02:30:43.081Z,70.22
2023-01-05T02:33:24.155Z,69.25
2023-01-05T02:36:36.526Z,69.32
2023-01-05T02:39:31.370Z,68.87
2023-01-05T02:42:14.432Z,69.47
2023-01-05T02:44:41.365Z,69.23
2023-01-05T02:47:28.270Z,69.43
2023-01-05T02:50:04.514Z,68.54
2023-01-05T02:53:14.626Z,69.05
2023-01-05T02:56:04.403Z,69.39
2023-01-05T02:58:49.435Z,69.05
2023-01-05T03:01:30.520Z,69.90
2023-01-05T03:04:07.560Z,71.66
2023-01-05T03:06:48.744Z,70.83
2023-01-05T03:09:19.981Z,72.37
2023-01-05T03:12:16.815Z,71.41
2023-01-05T03:14:50.485Z,72.32
2023-01-05T03:17:26.916Z,72.29
2023-01-05T03:19:55.518Z,72.66
2023-01-05T03:22:46.907Z,72.55
2023-01-05T03:25:36.765Z,72.30
2023-01-05T03:28:25.553Z,72.29
2023-01-05T03:31:23.017Z,72.76
2023-01-05T03:34:35.062Z,72.24
2023-01-05T03:37:08.774Z,72.39
2023-01-05T03:39:40.655Z,71.85
2023-01-05T03:42:09.359Z,72.31
2023-01-05T03:44:41.482Z,71.56
2023-01-05T03:47:08.297Z,73.03
2023-01-05T03:49:35.798Z,71.66
2023-01-05T03:52:02.684Z,71.93
2023-01-05T03:54:29.556Z,71.88
2023-01-05T03:56:56.414Z,71.65
2023-01-05T03:59:23.227Z,71.71
2023-01-05T04:01:50.167Z,72.26
2023-01-05T04:04:17.086Z,71.80
2023-01-05T04:06:43.891Z,72.28
2023-01-05T04:09:10.769Z,72.05
2023-01-05T04:11:37.559Z,72.25
2023-01-05T04:14:04.404Z,72.78
2023-01-05T04:16:31.328Z,73.31
2023-01-05T04:18:58.224Z,73.63
2023-01-05T04:21:25.106Z,73.65
2023-01-05T04:23:51.930Z,72.86
2023-01-05T04:26:18.769Z,72.60
2023-01-05T04:28:45.603Z,72.54
2023-01-05T04:31:12.578Z,72.45
2023-01-05T04:33:40.086Z,72.35
2023-01-05T04:36:08.275Z,73.30
2023-01-05T04:38:35.141Z,72.60
2023-01-05T04:41:01.979Z,73.20
2023-01-05T04:43:28.816Z,72.28
2023-01-05T04:45:55.781Z,73.63
2023-01-05T04:48:22.772Z,72.19
2023-01-05T04:50:55.443Z,72.30
2023-01-05T04:53:23.296Z,71.39
2023-01-05T04:55:51.428Z,71.64
2023-01-05T04:58:19.076Z,71.90
2023-01-05T05:00:46.027Z,71.21
2023-01-05T05:03:12.972Z,71.45
2023-01-05T05:05:39.896Z,71.22
2023-01-05T05:08:06.739Z,71.21
2023-01-05T05:10:33.510Z,70.94
2023-01-05T05:13:00.358Z,72.01
2023-01-05T05:15:27.418Z,70.97
2023-01-05T05:17:54.261Z,71.08
2023-01-05T05:20:21.067Z,71.21
2023-01-05T05:22:47.910Z,70.32
2023-01-05T05:25:14.769Z,71.30
2023-01-05T05:27:41.663Z,71.41
2023-01-05T05:30:09.234Z,72.84
2023-01-05T05:32:40.888Z,73.58
2023-01-05T05:35:10.813Z,75.26
2023-01-05T05:37:37.677Z,74.35
2023-01-05T05:40:05.400Z,73.09
2023-01-05T05:42:32.335Z,72.29
2023-01-05T05:44:59.146Z,73.25
2023-01-05T05:47:25.997Z,72.10
2023-01-05T05:49:52.812Z,72.25
2023-01-05T05:52:19.694Z,72.39
2023-01-05T05:54:46.515Z,71.97
2023-01-05T05:57:13.340Z,72.10
2023-01-05T05:59:40.185Z,71.50
2023-01-05T06:02:07.139Z,71.34
2023-01-05T06:04:34.027Z,71.21
2023-01-05T06:07:00.986Z,71.17
2023-01-05T06:09:27.822Z,71.44
2023-01-05T06:11:54.919Z,70.76
2023-01-05T06:14:21.855Z,70.69
2023-01-05T06:16:49.756Z,70.63
2023-01-05T06:19:16.673Z,71.13
2023-01-05T06:21:43.519Z,70.66
2023-01-05T06:24:10.376Z,72.63
2023-01-05T06:26:37.253Z,73.15
2023-01-05T06:29:04.138Z,73.09
2023-01-05T06:31:31.044Z,72.93
2023-01-05T06:33:57.847Z,72.90
2023-01-05T06:36:24.719Z,72.90
2023-01-05T06:38:51.563Z,72.94
2023-01-05T06:41:18.410Z,73.88
2023-01-05T06:43:45.456Z,73.44
2023-01-05T06:46:13.251Z,73.23
2023-01-05T06:48:40.199Z,72.98
2023-01-05T06:51:07.095Z,73.35
2023-01-05T06:53:33.980Z,73.40
2023-01-05T06:56:00.838Z,73.33
2023-01-05T06:58:27.660Z,73.45
2023-01-05T07:00:55.062Z,74.22
2023-01-05T07:03:23.715Z,74.38
2023-01-05T07:05:51.566Z,74.46
2023-01-05T07:08:18.450Z,73.86
2023-01-05T07:10:45.309Z,74.38
2023-01-05T07:13:12.217Z,74.16
2023-01-05T07:15:39.214Z,74.86
2023-01-05T07:18:06.079Z,74.52
2023-01-05T07:20:32.939Z,74.63
2023-01-05T07:22:59.817Z,75.19
2023-01-05T07:25:31.316Z,73.76
2023-01-05T07:27:58.671Z,73.67
2023-01-05T07:30:25.583Z,73.42
2023-01-05T07:32:52.408Z,73.24
2023-01-05T07:35:19.208Z,73.53
2023-01-05T07:37:46.104Z,73.87
2023-01-05T07:40:13.053Z,74.10
2023-01-05T07:42:39.873Z,75.72
2023-01-05T07:45:07.476Z,74.90
2023-01-05T07:47:34.427Z,74.94
2023-01-05T07:50:01.936Z,75.32
2023-01-05T07:52:30.633Z,74.52
2023-01-05T07:54:58.312Z,74.78
2023-01-05T07:57:25.160Z,75.02
2023-01-05T07:59:51.992Z,74.15
2023-01-05T08:02:18.943Z,74.55
2023-01-05T08:04:46.842Z,74.54
2023-01-05T08:07:15.687Z,75.00
2023-01-05T08:10:01.445Z,76.40
2023-01-05T08:12:30.329Z,76.60
2023-01-05T08:14:57.354Z,77.09
2023-01-05T08:17:24.182Z,79.31
2023-01-05T08:19:51.005Z,78.55
2023-01-05T08:22:17.932Z,78.44
2023-01-05T08:24:44.741Z,79.59
2023-01-05T08:27:11.620Z,79.19
2023-01-05T08:29:38.445Z,79.06
2023-01-05T08:32:05.681Z,80.15
2023-01-05T08:34:34.914Z,80.01
2023-01-05T08:37:02.122Z,80.63
2023-01-05T08:39:28.972Z,80.07
2023-01-05T08:42:02.121Z,80.75
2023-01-05T08:44:29.523Z,80.79
2023-01-05T08:46:56.356Z,80.76
2023-01-05T08:49:24.134Z,81.13
2023-01-05T08:51:50.992Z,81.31
2023-01-05T08:54:17.832Z,81.48
2023-01-05T08:56:44.754Z,80.79
2023-01-05T08:59:14.986Z,80.98
2023-01-05T09:01:42.365Z,80.23
2023-01-05T09:04:09.285Z,80.79
2023-01-05T09:06:36.113Z,81.55
2023-01-05T09:09:03.417Z,80.26
2023-01-05T09:11:30.362Z,79.67
2023-01-05T09:13:59.495Z,79.88
2023-01-05T09:19:17.601Z,79.22
2023-01-05T09:21:44.833Z,79.37
2023-01-05T09:24:12.977Z,79.47
2023-01-05T09:26:41.242Z,78.87
2023-01-05T09:29:09.147Z,78.33
2023-01-05T09:31:36.042Z,77.42
2023-01-05T09:34:03.007Z,77.54
2023-01-05T09:36:29.934Z,76.79
2023-01-05T09:38:57.080Z,77.03
2023-01-05T09:41:47.763Z,77.21
2023-01-05T09:44:37.240Z,78.12
2023-01-05T09:47:27.329Z,77.40
2023-01-05T09:49:55.875Z,76.40
2023-01-05T09:52:23.052Z,76.67
2023-01-05T09:54:50.032Z,76.54
2023-01-05T09:57:25.420Z,76.88
2023-01-05T09:59:58.747Z,77.25
2023-01-05T10:02:59.156Z,76.40
2023-01-05T10:05:27.969Z,75.93
2023-01-05T10:08:03.552Z,75.41
2023-01-05T10:11:20.819Z,75.65
2023-01-05T10:14:15.777Z,74.80
2023-01-05T10:16:45.545Z,74.78
2023-01-05T10:19:18.987Z,75.09
2023-01-05T10:22:06.421Z,74.52
2023-01-05T10:25:20.263Z,74.63
2023-01-05T10:28:20.520Z,75.05
2023-01-05T10:30:59.239Z,75.41
2023-01-05T10:33:56.689Z,75.82
2023-01-05T10:39:32.717Z,75.56
2023-01-05T10:42:18.311Z,75.59
2023-01-05T10:45:12.093Z,75.16
2023-01-05T10:47:40.928Z,75.17
2023-01-05T10:50:38.015Z,75.12
2023-01-05T10:53:09.169Z,74.29
2023-01-05T10:55:55.272Z,74.13
2023-01-05T10:58:23.187Z,73.92
2023-01-05T11:00:50.886Z,73.57
2023-01-05T11:03:19.425Z,73.91
2023-01-05T11:05:48.310Z,73.90
2023-01-05T11:08:19.208Z,74.11
2023-01-05T11:11:00.377Z,74.51
2023-01-05T11:13:43.076Z,74.76
2023-01-05T11:16:26.673Z,74.48
2023-01-05T11:19:14.686Z,75.18
2023-01-05T11:21:47.859Z,75.13
2023-01-05T11:24:23.975Z,75.66
2023-01-05T11:27:00.043Z,75.99
2023-01-05T11:29:27.740Z,75.22
2023-01-05T11:32:00.460Z,74.27
2023-01-05T11:34:49.581Z,73.83
2023-01-05T11:37:28.524Z,73.77
2023-01-05T11:40:04.691Z,72.79
2023-01-05T11:42:34.796Z,72.79
2023-01-05T11:45:08.036Z,72.90
2023-01-05T11:47:44.716Z,72.86
2023-01-05T11:50:18.525Z,73.36
2023-01-05T11:52:52.181Z,73.32
2023-01-05T11:55:30.422Z,73.43
2023-01-05T11:58:25.538Z,73.28
2023-01-05T12:01:25.380Z,73.02
2023-01-05T12:04:23.327Z,72.76
2023-01-05T12:07:20.524Z,72.93
2023-01-05T12:10:18.764Z,72.57
2023-01-05T12:13:08.809Z,73.27
2023-01-05T12:16:07.410Z,73.48
2023-01-05T12:19:06.302Z,73.07
2023-01-05T12:21:39.911Z,72.40
2023-01-05T12:24:39.013Z,72.58
2023-01-05T12:27:47.297Z,72.43
2023-01-05T12:36:23.651Z,71.97
2023-01-05T12:39:20.115Z,71.72
2023-01-05T12:42:48.631Z,72.11
2023-01-05T12:45:32.149Z,72.06
2023-01-05T12:48:33.832Z,72.17
2023-01-05T12:51:34.995Z,72.29
2023-01-05T12:54:07.282Z,73.31
2023-01-05T12:56:51.487Z,73.08
2023-01-05T12:59:32.539Z,72.51
2023-01-05T13:02:20.649Z,72.72
2023-01-05T13:05:19.768Z,71.66
2023-01-05T13:08:02.194Z,72.04
2023-01-05T13:10:57.624Z,71.92
2023-01-05T13:13:35.079Z,72.17
2023-01-05T13:16:20.204Z,71.50
2023-01-05T13:19:02.462Z,71.39
2023-01-05T13:21:30.842Z,70.94
2023-01-05T13:24:09.089Z,71.02
2023-01-05T13:26:38.453Z,70.64
2023-01-05T13:29:05.589Z,70.07
2023-01-05T13:31:44.281Z,69.64
2023-01-05T13:34:17.572Z,68.89
2023-01-05T13:37:26.655Z,68.74
2023-01-05T13:40:28.797Z,67.66
2023-01-05T13:43:19.864Z,67.96
2023-01-05T13:46:26.635Z,66.69
2023-01-05T13:52:55.481Z,66.31
2023-01-05T13:55:26.078Z,66.12
2023-01-05T13:57:55.684Z,66.52
2023-01-05T14:00:41.705Z,65.82
2023-01-05T14:03:29.101Z,65.55
2023-01-05T14:06:03.163Z,65.50
2023-01-05T14:08:38.363Z,65.69
2023-01-05T14:11:19.286Z,65.13
2023-01-05T14:14:00.102Z,65.66
2023-01-05T14:16:37.443Z,65.84
2023-01-05T14:19:28.231Z,66.09
2023-01-05T14:21:59.612Z,65.72
2023-01-05T14:24:47.459Z,65.99
2023-01-05T14:27:22.745Z,65.73
2023-01-05T14:29:52.760Z,65.64
2023-01-05T14:32:37.013Z,65.81
2023-01-05T14:35:30.687Z,66.18
2023-01-05T14:38:07.258Z,65.86
2023-01-05T14:40:55.464Z,65.82
2023-01-05T14:43:33.986Z,65.88
2023-01-05T14:46:11.738Z,66.11
2023-01-05T14:49:05.325Z,66.58
2023-01-05T14:51:34.612Z,65.91
2023-01-05T14:54:04.861Z,66.15
2023-01-05T14:56:35.120Z,65.80
2023-01-05T14:59:26.055Z,64.90
2023-01-05T15:02:03.440Z,65.45
2023-01-05T15:04:35.727Z,65.38
2023-01-05T15:07:42.051Z,65.77
2023-01-05T15:10:55.598Z,65.46
2023-01-05T15:13:37.390Z,64.94
2023-01-05T15:16:22.709Z,64.29
2023-01-05T15:18:59.265Z,64.64
2023-01-05T15:21:41.079Z,64.74
2023-01-05T15:24:49.594Z,64.11
2023-01-05T15:28:04.935Z,63.78
2023-01-05T15:34:14.484Z,63.33
2023-01-05T15:36:56.238Z,64.12
2023-01-05T15:39:29.944Z,64.27
2023-01-05T15:42:01.555Z,64.16
2023-01-05T15:44:37.328Z,63.46
2023-01-05T15:47:05.284Z,64.84
2023-01-05T15:49:34.067Z,63.91
2023-01-05T15:52:01.276Z,63.93
2023-01-05T15:54:31.820Z,64.72
2023-01-05T15:57:00.959Z,65.02
2023-01-05T15:59:40.751Z,65.01
2023-01-05T16:02:29.964Z,64.92
2023-01-05T16:05:14.131Z,65.53
2023-01-05T16:07:51.345Z,65.38
2023-01-05T16:10:22.985Z,65.45
2023-01-05T16:12:55.479Z,65.90
2023-01-05T16:15:24.104Z,66.08
2023-01-05T16:17:55.238Z,66.00
2023-01-05T16:20:24.978Z,66.05
2023-01-05T16:23:08.770Z,66.32
2023-01-05T16:25:47.828Z,66.23
2023-01-05T16:28:20.528Z,66.39
2023-01-05T16:30:49.697Z,66.33
2023-01-05T16:33:36.268Z,67.02
2023-01-05T16:36:22.743Z,67.09
2023-01-05T16:38:49.887Z,67.26
2023-01-05T16:41:26.400Z,67.25
2023-01-05T16:44:00.279Z,67.56
2023-01-05T16:46:37.265Z,67.46
2023-01-05T16:49:32.014Z,68.10
2023-01-05T16:51:59.656Z,67.97
2023-01-05T16:54:44.152Z,67.61
2023-01-05T16:57:41.014Z,67.92
2023-01-05T17:00:26.166Z,67.87
2023-01-05T17:02:58.220Z,67.76
2023-01-05T17:05:29.976Z,67.96
2023-01-05T17:08:21.288Z,68.46
2023-01-05T17:10:49.140Z,68.83
2023-01-05T17:13:23.363Z,68.96
2023-01-05T17:15:52.862Z,68.89
2023-01-05T17:18:28.599Z,69.26
2023-01-05T17:20:57.653Z,69.14
2023-01-05T17:23:27.007Z,69.40
2023-01-05T17:25:56.839Z,69.44
2023-01-05T17:28:24.714Z,69.78
2023-01-05T17:30:52.705Z,69.58
2023-01-05T17:33:19.920Z,69.54
2023-01-05T17:38:20.113Z,69.37
2023-01-05T17:40:46.964Z,69.24
2023-01-05T17:43:14.958Z,69.31
2023-01-05T17:45:43.998Z,69.32
2023-01-05T17:50:44.340Z,69.38
2023-01-05T17:53:11.515Z,69.33
2023-01-05T17:55:38.702Z,69.72
2023-01-05T17:58:05.708Z,69.20
2023-01-05T18:00:34.995Z,69.24
2023-01-05T18:03:01.856Z,69.32
2023-01-05T18:05:28.997Z,69.45
2023-01-05T18:07:55.999Z,69.30
2023-01-05T18:10:26.824Z,69.51
2023-01-05T18:12:55.793Z,69.44
2023-01-05T18:15:22.685Z,68.98
2023-01-05T18:17:49.536Z,68.78
2023-01-05T18:20:21.537Z,69.08
2023-01-05T18:22:49.461Z,68.85
2023-01-05T18:25:17.328Z,69.07
2023-01-05T18:27:44.439Z,68.69
2023-01-05T18:30:12.939Z,69.10
2023-01-05T18:32:40.474Z,68.98
2023-01-05T18:35:10.177Z,69.13
2023-01-05T18:37:39.132Z,69.41
2023-01-05T18:40:07.787Z,69.52
2023-01-05T18:42:36.277Z,69.51
2023-01-05T18:45:13.967Z,69.73
2023-01-05T18:47:46.877Z,69.12
2023-01-05T18:50:13.871Z,69.38
2023-01-05T18:52:40.811Z,69.27
2023-01-05T18:55:07.988Z,69.19
2023-01-05T18:57:35.965Z,69.59
2023-01-05T19:00:04.679Z,69.17
2023-01-05T19:02:31.833Z,69.37
2023-01-05T19:04:58.799Z,69.47
2023-01-05T19:07:25.673Z,69.41
2023-01-05T19:09:53.317Z,69.43
2023-01-05T19:12:20.249Z,69.68
2023-01-05T19:14:47.090Z,69.52
2023-01-05T19:17:13.977Z,69.63
2023-01-05T19:19:41.111Z,69.35
2023-01-05T19:22:07.971Z,69.08
2023-01-05T19:24:35.500Z,68.70
2023-01-05T19:27:02.366Z,68.37
2023-01-05T19:29:29.326Z,68.82
2023-01-05T19:31:56.204Z,69.25
2023-01-05T19:34:23.057Z,68.56
2023-01-05T19:36:49.947Z,68.65
2023-01-05T19:39:20.817Z,68.59
2023-01-05T19:41:51.256Z,68.44
2023-01-05T19:44:21.039Z,69.20
2023-01-05T19:46:51.868Z,68.85
2023-01-05T19:49:22.797Z,69.28
2023-01-05T19:51:50.282Z,69.09
2023-01-05T19:54:18.200Z,70.95
2023-01-05T19:56:45.689Z,70.23
2023-01-05T19:59:32.833Z,70.08
2023-01-05T20:02:04.937Z,70.17
2023-01-05T20:04:32.925Z,70.60
2023-01-05T20:07:04.001Z,70.69
2023-01-05T20:09:31.283Z,70.64
2023-01-05T20:12:09.109Z,71.11
2023-01-05T20:14:39.972Z,71.26
2023-01-05T20:17:10.266Z,71.74
2023-01-05T20:19:38.726Z,71.48
2023-01-05T20:22:07.791Z,72.10
2023-01-05T20:24:37.219Z,72.42
2023-01-05T20:27:08.953Z,72.48
2023-01-05T20:29:37.119Z,72.70
2023-01-05T20:32:09.347Z,72.29
2023-01-05T20:34:39.199Z,72.07
2023-01-05T20:37:09.322Z,72.36
2023-01-05T20:39:39.135Z,72.59
2023-01-05T20:42:06.536Z,72.58
2023-01-05T20:44:37.679Z,72.80
2023-01-05T20:47:06.788Z,72.38
2023-01-05T20:49:36.199Z,72.50
2023-01-05T20:52:04.505Z,72.89
2023-01-05T20:54:31.560Z,72.72
2023-01-05T20:56:58.845Z,72.66
2023-01-05T20:59:32.717Z,72.89
2023-01-05T21:02:00.666Z,72.75
2023-01-05T21:04:30.325Z,72.67
2023-01-05T21:07:01.083Z,72.80
2023-01-05T21:09:31.488Z,72.86
2023-01-05T21:12:00.072Z,72.70
2023-01-05T21:14:26.911Z,72.60
2023-01-05T21:16:55.149Z,72.17
2023-01-05T21:19:24.169Z,72.30
2023-01-05T21:21:55.531Z,72.09
2023-01-05T21:24:24.093Z,72.02
2023-01-05T21:26:51.264Z,72.35
2023-01-05T21:29:22.135Z,72.68
2023-01-05T21:31:50.465Z,72.45
2023-01-05T21:34:17.613Z,72.47
2023-01-05T21:36:45.814Z,72.57
2023-01-05T21:39:24.704Z,73.37
2023-01-05T21:42:11.619Z,75.06
2023-01-05T21:44:39.763Z,74.29
2023-01-05T21:47:13.936Z,74.87
2023-01-05T21:49:40.824Z,74.04
2023-01-05T21:52:25.990Z,73.90
2023-01-05T21:55:11.205Z,74.15
2023-01-05T21:57:38.095Z,75.10
2023-01-05T22:00:06.741Z,75.43
2023-01-05T22:02:33.587Z,76.28
2023-01-05T22:05:00.394Z,75.03
2023-01-05T22:07:27.388Z,74.79
2023-01-05T22:09:54.322Z,74.59
2023-01-05T22:12:21.146Z,74.78
2023-01-05T22:14:47.942Z,74.75
2023-01-05T22:17:14.900Z,75.04
2023-01-05T22:19:41.716Z,75.24
2023-01-05T22:22:08.496Z,76.13
2023-01-05T22:24:35.400Z,75.72
2023-01-05T22:27:02.257Z,75.69
2023-01-05T22:29:29.185Z,75.12
2023-01-05T22:31:56.114Z,75.61
2023-01-05T22:34:23.011Z,74.85
2023-01-05T22:36:50.195Z,75.11
2023-01-05T22:39:17.287Z,75.95
2023-01-05T22:41:45.497Z,75.63
2023-01-05T22:44:12.651Z,75.40
2023-01-05T22:46:39.505Z,75.70
2023-01-05T22:49:06.485Z,75.84
2023-01-05T22:51:37.082Z,76.79
2023-01-05T22:54:05.294Z,76.15
2023-01-05T22:56:33.513Z,75.95
2023-01-05T22:59:01.588Z,76.10
2023-01-05T23:01:43.443Z,76.22
2023-01-05T23:04:11.360Z,76.24
2023-01-05T23:06:38.434Z,76.45
2023-01-05T23:09:08.104Z,76.48
2023-01-05T23:11:38.740Z,76.63
2023-01-05T23:14:09.408Z,76.85
2023-01-05T23:16:36.799Z,77.13
2023-01-05T23:19:05.993Z,78.02
2023-01-05T23:21:33.055Z,78.13
2023-01-05T23:24:00.230Z,77.91
2023-01-05T23:26:28.439Z,77.71
2023-01-05T23:28:55.757Z,77.49
2023-01-05T23:31:23.294Z,77.30
2023-01-05T23:33:50.197Z,77.80
2023-01-05T23:36:18.892Z,78.15
2023-01-05T23:38:46.898Z,77.89
2023-01-05T23:41:16.055Z,77.93
2023-01-05T23:43:49.263Z,77.85
2023-01-05T23:46:20.284Z,77.67
2023-01-05T23:48:49.094Z,77.91
2023-01-05T23:51:17.076Z,78.34
2023-01-05T23:53:47.428Z,78.43
2023-01-05T23:56:26.854Z,78.28
2023-01-05T23:59:05.464Z,77.72
